createdAt,value
2018-12-01T00:01:48.364Z,84.01
2018-12-01T00:02:48.323Z,84.10
2018-12-01T00:04:41.640Z,84.01
2018-12-01T00:05:41.589Z,83.82
2018-12-01T00:07:34.894Z,83.34
2018-12-01T00:08:34.867Z,83.25
2018-12-01T00:10:28.170Z,82.87
2018-12-01T00:11:28.106Z,83.15
2018-12-01T00:13:21.440Z,83.34
2018-12-01T00:14:21.706Z,83.15
2018-12-01T00:16:14.692Z,82.82
2018-12-01T00:17:14.669Z,82.49
2018-12-01T00:19:07.950Z,82.07
2018-12-01T00:20:08.462Z,81.97
2018-12-01T00:22:01.646Z,82.26
2018-12-01T00:23:01.161Z,81.87
2018-12-01T00:24:54.476Z,82.64
2018-12-01T00:25:54.542Z,81.87
2018-12-01T00:27:47.752Z,81.68
2018-12-01T00:28:47.706Z,81.87
2018-12-01T00:30:41.032Z,81.78
2018-12-01T00:31:40.965Z,82.35
2018-12-01T00:33:34.482Z,81.87
2018-12-01T00:34:34.236Z,82.16
2018-12-01T00:36:27.531Z,82.16
2018-12-01T00:37:27.692Z,81.59
2018-12-01T00:39:20.765Z,82.16
2018-12-01T00:40:20.737Z,82.26
2018-12-01T00:42:14.058Z,81.68
2018-12-01T00:43:13.987Z,81.68
2018-12-01T00:45:07.317Z,81.87
2018-12-01T00:46:07.252Z,81.68
2018-12-01T00:48:01.608Z,81.40
2018-12-01T00:49:00.511Z,81.78
2018-12-01T00:50:55.716Z,81.49
2018-12-01T00:51:55.658Z,81.21
2018-12-01T00:53:49.501Z,81.59
2018-12-01T00:54:48.941Z,81.59
2018-12-01T00:56:42.225Z,81.49
2018-12-01T00:57:42.163Z,82.26
2018-12-01T00:59:35.472Z,82.54
2018-12-01T01:00:35.420Z,81.97
2018-12-01T01:02:30.164Z,82.07
2018-12-01T01:03:29.719Z,82.07
2018-12-01T01:05:23.030Z,81.68
2018-12-01T01:06:22.983Z,82.26
2018-12-01T01:08:16.303Z,81.78
2018-12-01T01:09:16.238Z,82.07
2018-12-01T01:11:09.652Z,81.78
2018-12-01T01:12:09.504Z,82.03
2018-12-01T01:14:02.817Z,81.87
2018-12-01T01:15:02.763Z,82.07
2018-12-01T01:16:56.071Z,82.35
2018-12-01T01:17:56.017Z,82.78
2018-12-01T01:19:49.303Z,82.40
2018-12-01T01:20:49.277Z,82.78
2018-12-01T01:22:42.598Z,82.21
2018-12-01T01:23:42.514Z,82.88
2018-12-01T01:25:35.802Z,82.59
2018-12-01T01:26:35.766Z,82.50
2018-12-01T01:28:29.090Z,81.65
2018-12-01T01:29:29.027Z,82.03
2018-12-01T01:31:22.323Z,82.03
2018-12-01T01:32:22.282Z,82.31
2018-12-01T01:34:15.608Z,81.45
2018-12-01T01:35:15.557Z,81.17
2018-12-01T01:37:08.849Z,80.69
2018-12-01T01:38:08.808Z,80.51
2018-12-01T01:40:02.124Z,80.88
2018-12-01T01:41:02.050Z,79.84
2018-12-01T01:42:55.373Z,80.51
2018-12-01T01:43:55.312Z,80.69
2018-12-01T01:45:48.627Z,80.69
2018-12-01T01:46:48.610Z,80.13
2018-12-01T01:48:41.891Z,80.41
2018-12-01T01:49:41.848Z,80.69
2018-12-01T01:51:35.153Z,81.26
2018-12-01T01:52:35.123Z,80.98
2018-12-01T01:54:28.429Z,81.45
2018-12-01T01:55:28.444Z,80.88
2018-12-01T01:57:21.659Z,81.26
2018-12-01T01:58:21.630Z,81.26
2018-12-01T02:00:14.961Z,81.17
2018-12-01T02:01:14.878Z,81.26
2018-12-01T02:03:08.203Z,81.55
2018-12-01T02:04:08.160Z,81.17
2018-12-01T02:06:01.466Z,81.36
2018-12-01T02:07:01.409Z,81.36
2018-12-01T02:08:54.729Z,81.17
2018-12-01T02:09:54.669Z,80.88
2018-12-01T02:11:47.975Z,81.45
2018-12-01T02:12:47.911Z,81.36
2018-12-01T02:14:41.236Z,81.65
2018-12-01T02:15:41.176Z,81.60
2018-12-01T02:17:34.473Z,81.60
2018-12-01T02:18:34.427Z,81.41
2018-12-01T02:20:27.780Z,82.17
2018-12-01T02:21:27.720Z,82.08
2018-12-01T02:23:21.025Z,81.70
2018-12-01T02:24:20.984Z,81.41
2018-12-01T02:26:14.291Z,81.41
2018-12-01T02:27:14.238Z,81.13
2018-12-01T02:29:07.570Z,81.04
2018-12-01T02:30:07.489Z,81.04
2018-12-01T02:32:01.498Z,81.13
2018-12-01T02:33:00.727Z,81.04
2018-12-01T02:34:54.070Z,79.80
2018-12-01T02:35:54.008Z,79.80
2018-12-01T02:37:47.297Z,79.14
2018-12-01T02:38:47.292Z,79.14
2018-12-01T02:40:40.582Z,78.47
2018-12-01T02:41:40.526Z,78.28
2018-12-01T02:43:33.822Z,77.90
2018-12-01T02:44:33.774Z,78.28
2018-12-01T02:46:27.101Z,78.66
2018-12-01T02:47:27.039Z,79.23
2018-12-01T02:49:20.361Z,79.61
2018-12-01T02:50:20.308Z,79.33
2018-12-01T02:52:13.646Z,79.33
2018-12-01T02:53:13.572Z,79.52
2018-12-01T02:55:06.863Z,79.42
2018-12-01T02:56:06.829Z,79.52
2018-12-01T02:58:00.151Z,79.33
2018-12-01T02:59:00.128Z,79.42
2018-12-01T03:00:53.389Z,79.33
2018-12-01T03:01:53.331Z,79.14
2018-12-01T03:03:46.629Z,79.33
2018-12-01T03:04:46.587Z,79.61
2018-12-01T03:06:39.913Z,79.61
2018-12-01T03:07:39.845Z,79.71
2018-12-01T03:09:33.132Z,79.99
2018-12-01T03:10:33.088Z,79.90
2018-12-01T03:12:26.413Z,79.90
2018-12-01T03:13:26.373Z,79.33
2018-12-01T03:15:19.659Z,79.42
2018-12-01T03:16:19.614Z,79.14
2018-12-01T03:18:13.692Z,79.23
2018-12-01T03:19:12.883Z,79.14
2018-12-01T03:21:06.177Z,79.80
2018-12-01T03:22:06.139Z,79.99
2018-12-01T03:23:59.458Z,79.99
2018-12-01T03:24:59.393Z,79.61
2018-12-01T03:26:52.717Z,79.80
2018-12-01T03:27:52.715Z,79.99
2018-12-01T03:29:45.963Z,78.43
2018-12-01T03:30:45.914Z,78.85
2018-12-01T03:32:39.221Z,79.42
2018-12-01T03:33:39.158Z,79.52
2018-12-01T03:35:32.458Z,79.33
2018-12-01T03:36:32.424Z,78.75
2018-12-01T03:38:25.786Z,78.62
2018-12-01T03:39:25.719Z,78.75
2018-12-01T03:41:19.009Z,79.38
2018-12-01T03:42:18.973Z,79.61
2018-12-01T03:44:12.295Z,79.38
2018-12-01T03:45:12.223Z,79.47
2018-12-01T03:47:05.540Z,78.81
2018-12-01T03:48:05.479Z,79.10
2018-12-01T03:49:58.810Z,78.43
2018-12-01T03:50:58.749Z,77.77
2018-12-01T03:52:52.073Z,77.01
2018-12-01T03:53:52.005Z,76.29
2018-12-01T03:55:45.317Z,76.39
2018-12-01T03:56:45.270Z,76.20
2018-12-01T03:58:38.575Z,76.76
2018-12-01T03:59:38.519Z,76.86
2018-12-01T04:01:31.843Z,76.39
2018-12-01T04:02:31.781Z,76.29
2018-12-01T04:04:25.098Z,76.34
2018-12-01T04:05:25.034Z,76.95
2018-12-01T04:07:18.340Z,76.01
2018-12-01T04:08:18.300Z,76.01
2018-12-01T04:10:11.620Z,76.10
2018-12-01T04:11:11.564Z,76.20
2018-12-01T04:13:04.884Z,76.48
2018-12-01T04:14:04.825Z,76.20
2018-12-01T04:15:58.131Z,76.95
2018-12-01T04:16:58.081Z,77.14
2018-12-01T04:18:51.415Z,77.05
2018-12-01T04:19:51.370Z,76.34
2018-12-01T04:21:44.631Z,77.01
2018-12-01T04:22:44.596Z,78.15
2018-12-01T04:24:37.925Z,78.34
2018-12-01T04:25:37.857Z,78.53
2018-12-01T04:27:31.202Z,78.15
2018-12-01T04:28:31.120Z,78.15
2018-12-01T04:30:24.447Z,77.96
2018-12-01T04:31:24.385Z,77.58
2018-12-01T04:33:17.688Z,77.48
2018-12-01T04:34:17.656Z,77.58
2018-12-01T04:36:10.988Z,77.58
2018-12-01T04:37:10.912Z,77.11
2018-12-01T04:39:04.255Z,77.67
2018-12-01T04:40:04.182Z,77.01
2018-12-01T04:41:57.492Z,76.34
2018-12-01T04:42:57.442Z,76.44
2018-12-01T04:44:50.761Z,75.59
2018-12-01T04:45:50.702Z,75.68
2018-12-01T04:47:44.036Z,75.68
2018-12-01T04:48:43.963Z,75.40
2018-12-01T04:50:37.286Z,74.35
2018-12-01T04:51:37.232Z,73.60
2018-12-01T04:53:30.530Z,72.64
2018-12-01T04:54:30.493Z,72.36
2018-12-01T04:56:23.806Z,72.93
2018-12-01T04:57:23.758Z,72.55
2018-12-01T04:59:17.082Z,73.22
2018-12-01T05:00:17.013Z,73.03
2018-12-01T05:02:10.348Z,72.74
2018-12-01T05:03:10.272Z,72.84
2018-12-01T05:05:03.593Z,72.08
2018-12-01T05:06:03.544Z,71.80
2018-12-01T05:07:56.858Z,72.08
2018-12-01T05:08:56.808Z,71.98
2018-12-01T05:10:50.120Z,71.80
2018-12-01T05:11:50.049Z,71.89
2018-12-01T05:13:43.374Z,71.98
2018-12-01T05:14:43.314Z,68.38
2018-12-01T05:16:36.644Z,70.09
2018-12-01T05:17:36.572Z,71.17
2018-12-01T05:19:29.887Z,71.80
2018-12-01T05:20:29.844Z,71.70
2018-12-01T05:22:23.168Z,72.21
2018-12-01T05:23:23.119Z,72.21
2018-12-01T05:25:16.414Z,71.73
2018-12-01T05:26:16.370Z,71.36
2018-12-01T05:28:09.684Z,70.98
2018-12-01T05:29:09.623Z,70.12
2018-12-01T05:31:02.920Z,71.17
2018-12-01T05:32:02.871Z,71.55
2018-12-01T05:33:56.183Z,71.55
2018-12-01T05:34:56.120Z,72.02
2018-12-01T05:36:49.429Z,72.88
2018-12-01T05:37:49.374Z,73.07
2018-12-01T05:39:42.663Z,74.01
2018-12-01T05:40:42.624Z,73.82
2018-12-01T05:42:35.943Z,73.07
2018-12-01T05:43:35.871Z,73.25
2018-12-01T05:45:29.355Z,73.82
2018-12-01T05:46:29.324Z,74.20
2018-12-01T05:48:22.656Z,74.49
2018-12-01T05:49:22.594Z,74.20
2018-12-01T05:51:16.893Z,74.39
2018-12-01T05:52:16.858Z,74.96
2018-12-01T05:54:10.175Z,75.24
2018-12-01T05:55:10.113Z,75.62
2018-12-01T05:57:03.423Z,75.53
2018-12-01T05:58:03.383Z,75.05
2018-12-01T05:59:56.691Z,74.77
2018-12-01T06:00:56.635Z,75.05
2018-12-01T06:02:49.960Z,75.05
2018-12-01T06:03:49.891Z,75.24
2018-12-01T06:05:43.224Z,75.62
2018-12-01T06:06:43.167Z,75.43
2018-12-01T06:08:36.490Z,75.53
2018-12-01T06:09:36.421Z,75.72
2018-12-01T06:11:29.876Z,75.43
2018-12-01T06:12:29.730Z,75.43
2018-12-01T06:14:24.025Z,75.91
2018-12-01T06:15:23.965Z,75.62
2018-12-01T06:17:17.272Z,74.87
2018-12-01T06:18:17.231Z,74.68
2018-12-01T06:20:10.536Z,74.68
2018-12-01T06:21:10.485Z,74.49
2018-12-01T06:23:03.815Z,74.58
2018-12-01T06:24:03.750Z,74.90
2018-12-01T06:25:57.086Z,74.58
2018-12-01T06:26:57.027Z,75.34
2018-12-01T06:28:50.360Z,74.96
2018-12-01T06:29:50.275Z,75.15
2018-12-01T06:31:43.571Z,75.57
2018-12-01T06:32:43.527Z,75.67
2018-12-01T06:34:36.856Z,75.38
2018-12-01T06:35:36.800Z,75.85
2018-12-01T06:37:30.107Z,75.76
2018-12-01T06:38:30.057Z,75.38
2018-12-01T06:40:23.398Z,76.42
2018-12-01T06:41:23.323Z,76.61
2018-12-01T06:43:16.653Z,76.52
2018-12-01T06:44:16.580Z,76.52
2018-12-01T06:46:09.933Z,76.90
2018-12-01T06:47:09.856Z,76.99
2018-12-01T06:49:03.141Z,76.99
2018-12-01T06:50:03.102Z,77.09
2018-12-01T06:51:56.437Z,77.37
2018-12-01T06:52:56.379Z,76.90
2018-12-01T06:54:49.697Z,76.99
2018-12-01T06:55:49.637Z,77.66
2018-12-01T06:57:42.933Z,78.03
2018-12-01T06:58:42.889Z,78.61
2018-12-01T07:00:36.212Z,77.94
2018-12-01T07:01:36.151Z,78.23
2018-12-01T07:03:29.460Z,78.70
2018-12-01T07:04:29.439Z,79.08
2018-12-01T07:06:22.737Z,79.65
2018-12-01T07:07:22.710Z,79.55
2018-12-01T07:09:16.003Z,80.03
2018-12-01T07:10:15.955Z,80.22
2018-12-01T07:12:09.265Z,79.36
2018-12-01T07:13:09.219Z,79.46
2018-12-01T07:15:02.493Z,79.36
2018-12-01T07:16:02.462Z,79.36
2018-12-01T07:17:55.777Z,79.65
2018-12-01T07:18:55.715Z,79.17
2018-12-01T07:20:49.043Z,79.65
2018-12-01T07:21:48.997Z,80.03
2018-12-01T07:23:42.313Z,79.46
2018-12-01T07:24:42.255Z,80.03
2018-12-01T07:26:35.570Z,79.08
2018-12-01T07:27:35.513Z,78.80
2018-12-01T07:29:28.803Z,79.46
2018-12-01T07:30:28.754Z,79.17
2018-12-01T07:32:22.095Z,79.17
2018-12-01T07:33:22.026Z,78.89
2018-12-01T07:35:15.324Z,79.08
2018-12-01T07:36:15.284Z,78.23
2018-12-01T07:38:08.613Z,78.89
2018-12-01T07:39:08.590Z,78.89
2018-12-01T07:41:01.876Z,78.89
2018-12-01T07:42:01.823Z,78.80
2018-12-01T07:43:55.145Z,78.61
2018-12-01T07:44:55.080Z,79.22
2018-12-01T07:46:48.404Z,78.83
2018-12-01T07:47:48.341Z,79.50
2018-12-01T07:49:41.663Z,79.60
2018-12-01T07:50:41.609Z,79.60
2018-12-01T07:52:34.929Z,79.69
2018-12-01T07:53:34.863Z,79.94
2018-12-01T07:55:28.179Z,79.50
2018-12-01T07:56:28.120Z,79.79
2018-12-01T07:58:22.060Z,78.83
2018-12-01T07:59:21.383Z,79.79
2018-12-01T08:01:14.705Z,79.41
2018-12-01T08:02:14.646Z,79.22
2018-12-01T08:04:07.971Z,79.12
2018-12-01T08:05:07.910Z,79.03
2018-12-01T08:07:01.207Z,78.74
2018-12-01T08:08:01.166Z,79.03
2018-12-01T08:09:54.495Z,79.22
2018-12-01T08:10:54.430Z,79.97
2018-12-01T08:12:47.797Z,79.41
2018-12-01T08:13:47.706Z,79.79
2018-12-01T08:15:41.069Z,79.97
2018-12-01T08:16:40.966Z,79.97
2018-12-01T08:18:34.292Z,79.69
2018-12-01T08:19:34.238Z,79.22
2018-12-01T08:21:27.568Z,79.41
2018-12-01T08:22:27.512Z,80.21
2018-12-01T08:24:20.837Z,79.44
2018-12-01T08:25:20.768Z,80.02
2018-12-01T08:27:14.067Z,80.21
2018-12-01T08:28:14.038Z,79.92
2018-12-01T08:30:07.328Z,80.49
2018-12-01T08:31:07.273Z,81.06
2018-12-01T08:33:00.565Z,80.96
2018-12-01T08:34:00.535Z,80.96
2018-12-01T08:35:53.860Z,80.87
2018-12-01T08:36:53.797Z,80.96
2018-12-01T08:38:47.131Z,81.54
2018-12-01T08:39:47.065Z,81.35
2018-12-01T08:41:40.359Z,81.35
2018-12-01T08:42:40.324Z,81.16
2018-12-01T08:44:33.644Z,81.82
2018-12-01T08:45:33.578Z,82.10
2018-12-01T08:47:26.880Z,82.29
2018-12-01T08:48:26.843Z,82.10
2018-12-01T08:50:20.160Z,82.10
2018-12-01T08:51:20.102Z,82.24
2018-12-01T08:53:13.399Z,82.34
2018-12-01T08:54:13.374Z,82.34
2018-12-01T08:56:06.694Z,82.91
2018-12-01T08:57:06.633Z,82.53
2018-12-01T08:58:59.939Z,83.00
2018-12-01T08:59:59.892Z,83.39
2018-12-01T09:01:53.237Z,83.95
2018-12-01T09:02:53.158Z,83.29
2018-12-01T09:04:46.469Z,83.86
2018-12-01T09:05:46.421Z,83.29
2018-12-01T09:07:39.776Z,84.62
2018-12-01T09:08:39.718Z,84.62
2018-12-01T09:10:33.015Z,84.95
2018-12-01T09:11:32.980Z,85.33
2018-12-01T09:13:26.278Z,85.24
2018-12-01T09:14:26.240Z,85.42
2018-12-01T09:16:19.545Z,85.80
2018-12-01T09:17:19.485Z,85.80
2018-12-01T09:19:12.800Z,85.99
2018-12-01T09:20:12.755Z,87.13
2018-12-01T09:22:06.085Z,87.42
2018-12-01T09:23:06.019Z,87.13
2018-12-01T09:24:59.305Z,86.94
2018-12-01T09:25:59.275Z,87.13
2018-12-01T09:27:52.615Z,88.46
2018-12-01T09:28:52.541Z,87.71
2018-12-01T09:30:45.844Z,87.42
2018-12-01T09:31:45.792Z,88.56
2018-12-01T09:33:39.117Z,88.99
2018-12-01T09:34:39.056Z,90.13
2018-12-01T09:36:32.392Z,91.03
2018-12-01T09:37:32.315Z,93.22
2018-12-01T09:39:25.638Z,94.32
2018-12-01T09:40:25.575Z,95.46
2018-12-01T09:42:18.906Z,96.60
2018-12-01T09:43:18.841Z,96.03
2018-12-01T09:45:12.160Z,96.94
2018-12-01T09:46:12.106Z,98.46
2018-12-01T09:48:05.435Z,99.75
2018-12-01T09:49:05.371Z,99.85
2018-12-01T09:50:58.685Z,99.27
2018-12-01T09:51:58.641Z,99.95
2018-12-01T09:53:51.980Z,99.18
2018-12-01T09:54:51.936Z,99.99
2018-12-01T09:56:45.252Z,99.99
2018-12-01T09:57:45.307Z,99.99
2018-12-01T09:59:39.227Z,99.99
2018-12-01T10:00:39.082Z,99.99
2018-12-01T10:02:32.386Z,99.99
2018-12-01T10:03:32.341Z,99.99
2018-12-01T10:05:25.686Z,99.99
2018-12-01T10:06:25.767Z,99.99
2018-12-01T10:08:19.059Z,97.85
2018-12-01T10:09:18.926Z,95.27
2018-12-01T10:11:12.269Z,91.25
2018-12-01T10:12:12.220Z,88.23
2018-12-01T10:14:06.638Z,90.91
2018-12-01T10:15:06.569Z,87.95
2018-12-01T10:16:59.816Z,93.26
2018-12-01T10:17:59.802Z,92.49
2018-12-01T10:19:54.121Z,92.02
2018-12-01T10:20:54.064Z,93.60
2018-12-01T10:22:47.538Z,95.98
2018-12-01T10:23:47.346Z,98.09
2018-12-01T10:25:41.719Z,99.19
2018-12-01T10:26:41.689Z,99.66
2018-12-01T10:28:35.976Z,99.99
2018-12-01T10:29:35.943Z,99.99
2018-12-01T10:31:30.269Z,99.99
2018-12-01T10:32:30.294Z,99.99
2018-12-01T10:34:23.541Z,99.99
2018-12-01T10:35:23.570Z,99.99
2018-12-01T10:37:16.792Z,99.99
2018-12-01T10:38:17.469Z,99.99
2018-12-01T10:40:10.098Z,99.99
2018-12-01T10:41:10.023Z,99.99
2018-12-01T10:43:03.489Z,99.99
2018-12-01T10:44:03.939Z,99.99
2018-12-01T10:45:56.610Z,99.99
2018-12-01T10:46:56.571Z,99.99
2018-12-01T10:48:49.904Z,99.99
2018-12-01T10:49:49.866Z,99.99
2018-12-01T10:51:43.129Z,99.99
2018-12-01T10:52:43.139Z,99.99
2018-12-01T10:54:36.404Z,99.99
2018-12-01T10:55:36.410Z,99.99
2018-12-01T10:57:29.688Z,99.95
2018-12-01T10:58:29.649Z,99.99
2018-12-01T11:00:22.978Z,99.99
2018-12-01T11:01:22.899Z,99.95
2018-12-01T11:03:16.187Z,99.99
2018-12-01T11:04:16.193Z,99.99
2018-12-01T11:06:09.475Z,99.99
2018-12-01T11:07:09.433Z,99.80
2018-12-01T11:09:02.759Z,99.89
2018-12-01T11:10:02.785Z,99.13
2018-12-01T11:11:56.153Z,99.13
2018-12-01T11:12:56.009Z,99.13
2018-12-01T11:14:49.625Z,99.22
2018-12-01T11:15:49.298Z,99.04
2018-12-01T11:17:42.625Z,98.56
2018-12-01T11:18:42.570Z,98.36
2018-12-01T11:20:36.053Z,99.89
2018-12-01T11:21:35.789Z,99.99
2018-12-01T11:23:29.309Z,99.89
2018-12-01T11:24:29.845Z,99.89
2018-12-01T11:26:23.436Z,99.99
2018-12-01T11:27:23.401Z,99.99
2018-12-01T11:29:16.795Z,99.99
2018-12-01T11:30:16.713Z,99.99
2018-12-01T11:32:09.968Z,99.99
2018-12-01T11:33:09.917Z,99.99
2018-12-01T11:35:03.236Z,99.99
2018-12-01T11:36:03.216Z,99.99
2018-12-01T11:37:56.526Z,99.99
2018-12-01T11:38:56.496Z,99.99
2018-12-01T11:40:49.770Z,99.99
2018-12-01T11:41:49.729Z,99.99
2018-12-01T11:43:43.040Z,99.99
2018-12-01T11:44:43.017Z,99.99
2018-12-01T11:46:36.330Z,99.99
2018-12-01T11:47:36.290Z,99.57
2018-12-01T11:49:29.605Z,96.56
2018-12-01T11:50:29.553Z,93.55
2018-12-01T11:52:23.891Z,87.66
2018-12-01T11:53:23.862Z,81.25
2018-12-01T11:55:17.182Z,83.16
2018-12-01T11:56:17.129Z,81.20
2018-12-01T11:58:10.456Z,75.26
2018-12-01T11:59:10.394Z,75.12
2018-12-01T12:01:03.751Z,72.09
2018-12-01T12:02:03.690Z,70.76
2018-12-01T12:03:57.026Z,67.69
2018-12-01T12:04:56.979Z,66.96
2018-12-01T12:06:50.275Z,66.58
2018-12-01T12:07:50.251Z,66.22
2018-12-01T12:09:43.591Z,64.18
2018-12-01T12:10:43.527Z,64.82
2018-12-01T12:12:36.852Z,66.80
2018-12-01T12:13:36.830Z,68.49
2018-12-01T12:15:30.335Z,69.15
2018-12-01T12:16:30.107Z,70.59
2018-12-01T12:18:23.448Z,74.38
2018-12-01T12:19:23.382Z,76.20
2018-12-01T12:21:17.724Z,75.71
2018-12-01T12:22:17.726Z,77.15
2018-12-01T12:24:12.037Z,79.98
2018-12-01T12:25:11.988Z,80.93
2018-12-01T12:27:05.305Z,83.38
2018-12-01T12:28:05.282Z,85.48
2018-12-01T12:29:59.767Z,83.67
2018-12-01T12:30:59.588Z,84.96
2018-12-01T12:32:52.907Z,88.97
2018-12-01T12:33:52.848Z,90.73
2018-12-01T12:35:47.269Z,90.59
2018-12-01T12:36:47.113Z,90.17
2018-12-01T12:38:40.440Z,91.41
2018-12-01T12:39:41.011Z,93.41
2018-12-01T12:41:33.704Z,94.74
2018-12-01T12:42:33.653Z,96.17
2018-12-01T12:44:27.317Z,97.42
2018-12-01T12:45:35.963Z,97.42
2018-12-01T12:47:20.569Z,96.75
2018-12-01T12:48:20.533Z,97.61
2018-12-01T12:50:13.808Z,98.94
2018-12-01T12:51:13.770Z,99.52
2018-12-01T12:53:07.285Z,99.99
2018-12-01T12:54:07.067Z,99.99
2018-12-01T12:56:00.519Z,99.99
2018-12-01T12:57:00.345Z,99.99
2018-12-01T12:58:54.663Z,99.99
2018-12-01T12:59:54.612Z,99.99
2018-12-01T13:01:47.924Z,99.99
2018-12-01T13:02:47.858Z,99.99
2018-12-01T13:04:41.333Z,99.99
2018-12-01T13:05:41.448Z,99.99
2018-12-01T13:07:34.483Z,99.99
2018-12-01T13:08:34.430Z,99.99
2018-12-01T13:10:27.694Z,99.99
2018-12-01T13:11:27.654Z,99.99
2018-12-01T13:13:21.035Z,99.99
2018-12-01T13:14:20.918Z,99.99
2018-12-01T13:16:14.238Z,99.99
2018-12-01T13:17:14.194Z,99.99
2018-12-01T13:19:07.493Z,99.99
2018-12-01T13:20:07.430Z,99.99
2018-12-01T13:22:00.747Z,99.99
2018-12-01T13:23:00.743Z,99.99
2018-12-01T13:24:54.170Z,99.99
2018-12-01T13:25:53.978Z,99.99
2018-12-01T13:27:47.289Z,99.99
2018-12-01T13:28:47.249Z,99.99
2018-12-01T13:30:44.672Z,99.99
2018-12-01T13:31:40.506Z,99.99
2018-12-01T13:33:33.808Z,99.99
2018-12-01T13:34:33.770Z,99.99
2018-12-01T13:36:27.053Z,99.99
2018-12-01T13:37:27.007Z,99.99
2018-12-01T13:39:20.367Z,99.99
2018-12-01T13:40:20.304Z,99.99
2018-12-01T13:42:13.670Z,99.99
2018-12-01T13:43:13.947Z,99.99
2018-12-01T13:45:06.895Z,99.99
2018-12-01T13:46:06.836Z,99.99
2018-12-01T13:48:00.154Z,99.99
2018-12-01T13:49:00.129Z,99.99
2018-12-01T13:50:54.602Z,99.99
2018-12-01T13:51:54.471Z,99.99
2018-12-01T13:53:47.735Z,99.99
2018-12-01T13:54:47.695Z,99.99
2018-12-01T13:56:41.042Z,99.84
2018-12-01T13:57:40.991Z,99.94
2018-12-01T13:59:35.337Z,99.99
2018-12-01T14:00:35.276Z,99.99
2018-12-01T14:02:28.043Z,99.99
2018-12-01T14:03:28.145Z,99.99
2018-12-01T14:05:22.368Z,99.99
2018-12-01T14:06:22.278Z,99.99
2018-12-01T14:08:15.621Z,99.99
2018-12-01T14:09:15.592Z,99.99
2018-12-01T14:11:08.876Z,99.84
2018-12-01T14:12:08.812Z,99.75
2018-12-01T14:14:02.106Z,99.75
2018-12-01T14:15:02.081Z,99.37
2018-12-01T14:16:55.407Z,99.55
2018-12-01T14:17:55.328Z,99.46
2018-12-01T14:19:48.661Z,99.08
2018-12-01T14:20:48.618Z,99.46
2018-12-01T14:22:41.902Z,98.89
2018-12-01T14:23:41.874Z,98.79
2018-12-01T14:25:35.173Z,98.41
2018-12-01T14:26:35.283Z,98.32
2018-12-01T14:28:29.419Z,97.75
2018-12-01T14:29:29.366Z,97.51
2018-12-01T14:31:22.674Z,97.75
2018-12-01T14:32:22.638Z,97.46
2018-12-01T14:34:15.940Z,97.75
2018-12-01T14:35:15.881Z,97.70
2018-12-01T14:37:10.347Z,97.60
2018-12-01T14:38:10.568Z,97.31
2018-12-01T14:40:03.492Z,97.41
2018-12-01T14:41:03.471Z,96.46
2018-12-01T14:42:56.794Z,95.89
2018-12-01T14:43:56.758Z,96.17
2018-12-01T14:45:50.059Z,94.65
2018-12-01T14:46:50.030Z,94.56
2018-12-01T14:48:43.283Z,94.17
2018-12-01T14:49:43.272Z,94.46
2018-12-01T14:51:37.587Z,92.08
2018-12-01T14:52:37.527Z,91.70
2018-12-01T14:54:30.817Z,91.13
2018-12-01T14:55:30.892Z,91.13
2018-12-01T14:57:24.215Z,88.56
2018-12-01T14:58:24.133Z,87.51
2018-12-01T15:00:17.379Z,87.03
2018-12-01T15:01:17.385Z,87.13
2018-12-01T15:03:12.675Z,85.51
2018-12-01T15:04:12.665Z,86.08
2018-12-01T15:06:08.000Z,84.04
2018-12-01T15:07:07.945Z,83.65
2018-12-01T15:09:01.270Z,82.04
2018-12-01T15:10:01.288Z,81.76
2018-12-01T15:11:54.573Z,81.47
2018-12-01T15:12:54.634Z,79.19
2018-12-01T15:14:50.050Z,78.80
2018-12-01T15:15:50.090Z,77.28
2018-12-01T15:17:46.724Z,76.14
2018-12-01T15:18:45.125Z,76.33
2018-12-01T15:20:39.434Z,73.76
2018-12-01T15:21:40.112Z,74.71
2018-12-01T15:23:33.762Z,73.76
2018-12-01T15:24:33.668Z,73.47
2018-12-01T15:26:28.135Z,71.86
2018-12-01T15:27:27.947Z,71.28
2018-12-01T15:29:23.629Z,70.72
2018-12-01T15:30:23.454Z,71.19
2018-12-01T15:32:17.814Z,72.42
2018-12-01T15:33:17.781Z,72.81
2018-12-01T15:35:13.213Z,73.10
2018-12-01T15:36:13.104Z,73.57
2018-12-01T15:38:12.018Z,73.19
2018-12-01T15:39:11.720Z,72.42
2018-12-01T15:41:06.248Z,72.49
2018-12-01T15:42:06.300Z,72.14
2018-12-01T15:44:01.900Z,72.62
2018-12-01T15:45:00.344Z,73.15
2018-12-01T15:46:54.076Z,72.52
2018-12-01T15:47:54.203Z,72.58
2018-12-01T15:49:50.749Z,72.52
2018-12-01T15:50:49.149Z,73.63
2018-12-01T15:52:46.421Z,72.42
2018-12-01T15:53:46.902Z,73.47
2018-12-01T15:55:41.769Z,73.28
2018-12-01T15:56:41.720Z,73.28
2018-12-01T15:58:37.191Z,72.81
2018-12-01T15:59:37.088Z,72.81
2018-12-01T16:01:30.491Z,73.57
2018-12-01T16:02:30.347Z,74.62
2018-12-01T16:05:16.540Z,74.80
2018-12-01T16:06:16.325Z,74.99
2018-12-01T16:08:11.459Z,74.52
2018-12-01T16:09:11.329Z,75.38
2018-12-01T16:11:05.772Z,75.38
2018-12-01T16:12:05.640Z,75.15
2018-12-01T16:14:00.105Z,76.23
2018-12-01T16:14:59.976Z,76.71
2018-12-01T16:16:54.321Z,77.53
2018-12-01T16:17:54.252Z,78.00
2018-12-01T16:19:48.681Z,78.04
2018-12-01T16:20:48.521Z,78.19
2018-12-01T16:22:42.922Z,77.95
2018-12-01T16:23:42.804Z,78.23
2018-12-01T16:25:37.178Z,77.56
2018-12-01T16:26:37.160Z,76.67
2018-12-01T16:28:31.532Z,79.19
2018-12-01T16:29:31.474Z,79.24
2018-12-01T16:31:31.515Z,79.33
2018-12-01T16:32:31.547Z,80.04
2018-12-01T16:34:26.896Z,79.47
2018-12-01T16:35:26.658Z,79.66
2018-12-01T16:37:21.720Z,80.52
2018-12-01T16:38:21.058Z,80.38
2018-12-01T16:40:16.499Z,80.04
2018-12-01T16:41:16.178Z,79.75
2018-12-01T16:43:10.158Z,79.57
2018-12-01T16:44:10.101Z,80.61
2018-12-01T16:46:58.118Z,83.28
2018-12-01T16:47:58.112Z,81.85
2018-12-01T16:49:53.838Z,82.70
2018-12-01T16:50:53.699Z,82.99
2018-12-01T16:52:50.962Z,83.09
2018-12-01T16:53:50.621Z,84.04
2018-12-01T16:55:46.288Z,83.75
2018-12-01T16:56:46.308Z,83.09
2018-12-01T16:58:42.269Z,82.32
2018-12-01T16:59:41.395Z,83.28
2018-12-01T17:01:39.347Z,82.90
2018-12-01T17:02:39.251Z,82.90
2018-12-01T17:04:37.144Z,83.47
2018-12-01T17:05:36.764Z,83.47
2018-12-01T17:07:32.542Z,82.42
2018-12-01T17:08:31.128Z,83.09
2018-12-01T17:10:25.669Z,83.28
2018-12-01T17:11:25.779Z,82.61
2018-12-01T17:13:20.112Z,82.51
2018-12-01T17:14:19.971Z,82.61
2018-12-01T17:16:15.472Z,81.47
2018-12-01T17:17:14.764Z,81.37
2018-12-01T17:19:12.123Z,80.33
2018-12-01T17:20:11.985Z,80.33
2018-12-01T17:22:07.214Z,79.66
2018-12-01T17:23:07.184Z,80.33
2018-12-01T17:25:08.954Z,78.23
2018-12-01T17:26:18.120Z,78.71
2018-12-01T17:28:14.854Z,78.14
2018-12-01T17:29:11.224Z,76.90
2018-12-01T17:33:30.535Z,76.57
2018-12-01T17:34:29.011Z,75.05
2018-12-01T17:36:32.192Z,75.81
2018-12-01T17:37:24.104Z,76.57
2018-12-01T17:42:14.153Z,77.34
2018-12-01T17:42:34.573Z,76.76
2018-12-01T17:45:01.680Z,77.81
2018-12-01T17:47:44.850Z,77.53
2018-12-01T17:48:44.217Z,77.15
2018-12-01T17:56:26.410Z,79.91
2018-12-01T17:57:34.896Z,80.10
2018-12-01T17:59:29.285Z,80.61
2018-12-01T18:00:29.375Z,82.80
2018-12-01T18:02:15.142Z,83.18
2018-12-01T18:03:14.816Z,83.18
2018-12-01T18:05:09.167Z,85.08
2018-12-01T18:06:09.155Z,84.99
2018-12-01T18:11:59.096Z,85.85
2018-12-01T18:12:44.003Z,85.66
2018-12-01T18:14:37.341Z,87.27
2018-12-01T18:15:37.636Z,86.42
2018-12-01T18:17:31.765Z,86.04
2018-12-01T18:18:31.458Z,86.61
2018-12-01T18:20:29.071Z,87.75
2018-12-01T18:21:28.831Z,86.70
2018-12-01T18:23:25.731Z,86.99
2018-12-01T18:24:26.201Z,87.75
2018-12-01T18:26:20.067Z,87.18
2018-12-01T18:27:20.193Z,87.27
2018-12-01T18:29:16.757Z,87.18
2018-12-01T18:30:15.854Z,87.56
2018-12-01T18:32:13.848Z,88.89
2018-12-01T18:33:14.060Z,87.56
2018-12-01T18:38:46.553Z,88.04
2018-12-01T18:39:46.896Z,88.13
2018-12-01T18:41:40.972Z,88.51
2018-12-01T18:43:54.551Z,87.65
2018-12-01T18:44:53.914Z,87.75
2018-12-01T18:46:48.878Z,88.23
2018-12-01T18:47:48.218Z,88.89
2018-12-01T18:49:42.603Z,88.32
2018-12-01T18:50:42.453Z,88.32
2018-12-01T18:52:37.829Z,87.03
2018-12-01T18:53:37.757Z,88.18
2018-12-01T18:55:32.444Z,87.08
2018-12-01T18:56:32.438Z,87.51
2018-12-01T18:58:26.737Z,87.08
2018-12-01T18:59:26.676Z,88.42
2018-12-01T19:01:22.069Z,89.03